sensor_id;sensor_type;location;lat;lon;timestamp;P1;durP1;ratioP1;P2;durP2;ratioP2
2035;SDS011;23642;42.658;23.350;2023-03-23T00:01:59;114.50;;;90.20;;
2035;SDS011;23642;42.658;23.350;2023-03-23T00:04:26;99.73;;;89.43;;
2035;SDS011;23642;42.658;23.350;2023-03-23T00:06:55;100.30;;;90.20;;
2035;SDS011;23642;42.658;23.350;2023-03-23T00:09:22;131.47;;;90.30;;
2035;SDS011;23642;42.658;23.350;2023-03-23T00:11:49;123.17;;;93.00;;
2035;SDS011;23642;42.658;23.350;2023-03-23T00:14:23;104.50;;;92.57;;
2035;SDS011;23642;42.658;23.350;2023-03-23T00:16:51;96.50;;;86.70;;
2035;SDS011;23642;42.658;23.350;2023-03-23T00:19:18;126.37;;;89.23;;
2035;SDS011;23642;42.658;23.350;2023-03-23T00:21:45;141.07;;;90.53;;
2035;SDS011;23642;42.658;23.350;2023-03-23T00:24:13;95.67;;;86.33;;
2035;SDS011;23642;42.658;23.350;2023-03-23T00:26:42;131.50;;;91.57;;
2035;SDS011;23642;42.658;23.350;2023-03-23T00:29:13;98.73;;;87.97;;
2035;SDS011;23642;42.658;23.350;2023-03-23T00:31:42;96.33;;;86.27;;
2035;SDS011;23642;42.658;23.350;2023-03-23T00:34:12;91.50;;;83.20;;
2035;SDS011;23642;42.658;23.350;2023-03-23T00:36:44;95.13;;;86.93;;
2035;SDS011;23642;42.658;23.350;2023-03-23T00:39:22;92.30;;;84.40;;
2035;SDS011;23642;42.658;23.350;2023-03-23T00:41:49;92.57;;;84.23;;
2035;SDS011;23642;42.658;23.350;2023-03-23T00:44:16;90.83;;;82.90;;
2035;SDS011;23642;42.658;23.350;2023-03-23T00:46:45;89.97;;;82.27;;
2035;SDS011;23642;42.658;23.350;2023-03-23T00:49:14;87.30;;;80.10;;
2035;SDS011;23642;42.658;23.350;2023-03-23T00:51:42;90.33;;;82.67;;
2035;SDS011;23642;42.658;23.350;2023-03-23T00:54:10;86.20;;;78.60;;
2035;SDS011;23642;42.658;23.350;2023-03-23T00:56:37;88.83;;;81.40;;
2035;SDS011;23642;42.658;23.350;2023-03-23T00:59:05;90.80;;;83.00;;
2035;SDS011;23642;42.658;23.350;2023-03-23T01:01:32;89.70;;;82.20;;
2035;SDS011;23642;42.658;23.350;2023-03-23T01:04:01;88.13;;;80.50;;
2035;SDS011;23642;42.658;23.350;2023-03-23T01:06:31;89.13;;;81.87;;
2035;SDS011;23642;42.658;23.350;2023-03-23T01:09:00;85.73;;;78.90;;
2035;SDS011;23642;42.658;23.350;2023-03-23T01:11:28;88.07;;;80.53;;
2035;SDS011;23642;42.658;23.350;2023-03-23T01:13:55;87.07;;;79.80;;
2035;SDS011;23642;42.658;23.350;2023-03-23T01:16:22;92.10;;;84.17;;
2035;SDS011;23642;42.658;23.350;2023-03-23T01:18:49;87.20;;;79.87;;
2035;SDS011;23642;42.658;23.350;2023-03-23T01:21:18;88.80;;;81.57;;
2035;SDS011;23642;42.658;23.350;2023-03-23T01:23:46;91.23;;;83.87;;
2035;SDS011;23642;42.658;23.350;2023-03-23T01:26:14;87.00;;;79.30;;
2035;SDS011;23642;42.658;23.350;2023-03-23T01:28:43;86.37;;;79.07;;
2035;SDS011;23642;42.658;23.350;2023-03-23T01:31:11;89.27;;;81.73;;
2035;SDS011;23642;42.658;23.350;2023-03-23T01:33:39;88.77;;;81.20;;
2035;SDS011;23642;42.658;23.350;2023-03-23T01:36:07;89.90;;;81.97;;
2035;SDS011;23642;42.658;23.350;2023-03-23T01:38:37;95.00;;;86.50;;
2035;SDS011;23642;42.658;23.350;2023-03-23T01:41:05;95.17;;;85.60;;
2035;SDS011;23642;42.658;23.350;2023-03-23T01:43:32;96.93;;;87.60;;
2035;SDS011;23642;42.658;23.350;2023-03-23T01:45:58;95.57;;;86.77;;
2035;SDS011;23642;42.658;23.350;2023-03-23T01:48:26;100.80;;;90.70;;
2035;SDS011;23642;42.658;23.350;2023-03-23T01:50:56;98.77;;;89.07;;
2035;SDS011;23642;42.658;23.350;2023-03-23T01:53:27;96.83;;;87.90;;
2035;SDS011;23642;42.658;23.350;2023-03-23T01:55:59;96.30;;;86.70;;
2035;SDS011;23642;42.658;23.350;2023-03-23T01:58:29;99.27;;;90.27;;
2035;SDS011;23642;42.658;23.350;2023-03-23T02:00:58;96.07;;;86.57;;
2035;SDS011;23642;42.658;23.350;2023-03-23T02:03:37;99.13;;;89.37;;
2035;SDS011;23642;42.658;23.350;2023-03-23T02:06:05;99.17;;;89.93;;
2035;SDS011;23642;42.658;23.350;2023-03-23T02:08:32;96.97;;;86.77;;
2035;SDS011;23642;42.658;23.350;2023-03-23T02:11:08;95.30;;;86.67;;
2035;SDS011;23642;42.658;23.350;2023-03-23T02:13:38;97.17;;;88.27;;
2035;SDS011;23642;42.658;23.350;2023-03-23T02:16:08;95.67;;;86.50;;
2035;SDS011;23642;42.658;23.350;2023-03-23T02:18:48;93.90;;;85.37;;
2035;SDS011;23642;42.658;23.350;2023-03-23T02:21:32;93.40;;;84.53;;
2035;SDS011;23642;42.658;23.350;2023-03-23T02:27:20;89.20;;;81.57;;
2035;SDS011;23642;42.658;23.350;2023-03-23T02:30:09;91.73;;;84.00;;
2035;SDS011;23642;42.658;23.350;2023-03-23T02:32:52;92.23;;;83.97;;
2035;SDS011;23642;42.658;23.350;2023-03-23T02:35:38;90.40;;;82.97;;
2035;SDS011;23642;42.658;23.350;2023-03-23T02:38:10;87.53;;;80.30;;
2035;SDS011;23642;42.658;23.350;2023-03-23T02:40:41;87.03;;;80.30;;
2035;SDS011;23642;42.658;23.350;2023-03-23T02:43:10;87.00;;;79.90;;
2035;SDS011;23642;42.658;23.350;2023-03-23T02:45:40;88.97;;;81.60;;
2035;SDS011;23642;42.658;23.350;2023-03-23T02:48:11;89.00;;;81.50;;
2035;SDS011;23642;42.658;23.350;2023-03-23T02:50:44;84.87;;;77.80;;
2035;SDS011;23642;42.658;23.350;2023-03-23T02:53:16;89.20;;;81.40;;
2035;SDS011;23642;42.658;23.350;2023-03-23T02:55:47;88.10;;;80.70;;
2035;SDS011;23642;42.658;23.350;2023-03-23T02:58:14;88.83;;;81.20;;
2035;SDS011;23642;42.658;23.350;2023-03-23T03:00:41;89.10;;;81.50;;
2035;SDS011;23642;42.658;23.350;2023-03-23T03:03:10;92.57;;;84.20;;
2035;SDS011;23642;42.658;23.350;2023-03-23T03:05:40;86.83;;;79.10;;
2035;SDS011;23642;42.658;23.350;2023-03-23T03:08:17;95.80;;;85.50;;
2035;SDS011;23642;42.658;23.350;2023-03-23T03:10:50;158.30;;;91.23;;
2035;SDS011;23642;42.658;23.350;2023-03-23T03:13:28;193.53;;;93.57;;
2035;SDS011;23642;42.658;23.350;2023-03-23T03:16:04;113.33;;;87.60;;
2035;SDS011;23642;42.658;23.350;2023-03-23T03:18:38;119.23;;;88.63;;
2035;SDS011;23642;42.658;23.350;2023-03-23T03:21:12;140.43;;;90.40;;
2035;SDS011;23642;42.658;23.350;2023-03-23T03:23:42;96.10;;;85.37;;
2035;SDS011;23642;42.658;23.350;2023-03-23T03:26:11;165.20;;;89.93;;
2035;SDS011;23642;42.658;23.350;2023-03-23T03:28:43;151.23;;;87.13;;
2035;SDS011;23642;42.658;23.350;2023-03-23T03:31:13;115.90;;;87.47;;
2035;SDS011;23642;42.658;23.350;2023-03-23T03:33:43;110.87;;;84.50;;
2035;SDS011;23642;42.658;23.350;2023-03-23T03:36:15;94.57;;;82.20;;
2035;SDS011;23642;42.658;23.350;2023-03-23T03:38:45;90.13;;;81.20;;
2035;SDS011;23642;42.658;23.350;2023-03-23T03:41:16;92.40;;;82.50;;
2035;SDS011;23642;42.658;23.350;2023-03-23T03:43:44;92.27;;;83.17;;
2035;SDS011;23642;42.658;23.350;2023-03-23T03:46:10;91.63;;;83.00;;
2035;SDS011;23642;42.658;23.350;2023-03-23T03:48:37;95.70;;;86.17;;
2035;SDS011;23642;42.658;23.350;2023-03-23T03:51:04;92.17;;;82.83;;
2035;SDS011;23642;42.658;23.350;2023-03-23T03:53:32;94.43;;;85.10;;
2035;SDS011;23642;42.658;23.350;2023-03-23T03:55:59;87.07;;;78.87;;
2035;SDS011;23642;42.658;23.350;2023-03-23T03:58:26;88.23;;;80.03;;
2035;SDS011;23642;42.658;23.350;2023-03-23T04:00:57;91.83;;;82.80;;
2035;SDS011;23642;42.658;23.350;2023-03-23T04:03:25;93.27;;;84.47;;
2035;SDS011;23642;42.658;23.350;2023-03-23T04:05:52;91.30;;;82.30;;
2035;SDS011;23642;42.658;23.350;2023-03-23T04:08:21;98.67;;;89.30;;
2035;SDS011;23642;42.658;23.350;2023-03-23T04:10:49;93.23;;;84.57;;
2035;SDS011;23642;42.658;23.350;2023-03-23T04:13:16;94.30;;;85.40;;
2035;SDS011;23642;42.658;23.350;2023-03-23T04:15:44;95.93;;;86.63;;
2035;SDS011;23642;42.658;23.350;2023-03-23T04:18:11;97.63;;;87.67;;
2035;SDS011;23642;42.658;23.350;2023-03-23T04:20:40;93.67;;;84.67;;
2035;SDS011;23642;42.658;23.350;2023-03-23T04:23:09;96.17;;;87.20;;
2035;SDS011;23642;42.658;23.350;2023-03-23T04:25:35;94.47;;;85.37;;
2035;SDS011;23642;42.658;23.350;2023-03-23T04:28:04;94.80;;;86.30;;
2035;SDS011;23642;42.658;23.350;2023-03-23T04:30:32;94.43;;;85.80;;
2035;SDS011;23642;42.658;23.350;2023-03-23T04:32:58;93.67;;;85.50;;
2035;SDS011;23642;42.658;23.350;2023-03-23T04:35:26;97.40;;;87.87;;
2035;SDS011;23642;42.658;23.350;2023-03-23T04:37:54;97.63;;;88.37;;
2035;SDS011;23642;42.658;23.350;2023-03-23T04:40:23;94.03;;;85.03;;
2035;SDS011;23642;42.658;23.350;2023-03-23T04:42:50;97.40;;;88.17;;
2035;SDS011;23642;42.658;23.350;2023-03-23T04:45:18;93.97;;;86.07;;
2035;SDS011;23642;42.658;23.350;2023-03-23T04:47:47;100.17;;;90.97;;
2035;SDS011;23642;42.658;23.350;2023-03-23T04:50:18;101.13;;;91.50;;
2035;SDS011;23642;42.658;23.350;2023-03-23T04:52:49;96.83;;;87.80;;
2035;SDS011;23642;42.658;23.350;2023-03-23T04:55:19;97.83;;;89.00;;
2035;SDS011;23642;42.658;23.350;2023-03-23T04:57:46;102.43;;;92.57;;
2035;SDS011;23642;42.658;23.350;2023-03-23T05:00:14;98.40;;;89.17;;
2035;SDS011;23642;42.658;23.350;2023-03-23T05:02:43;98.97;;;89.50;;
2035;SDS011;23642;42.658;23.350;2023-03-23T05:05:11;99.10;;;89.93;;
2035;SDS011;23642;42.658;23.350;2023-03-23T05:07:42;98.30;;;88.90;;
2035;SDS011;23642;42.658;23.350;2023-03-23T05:10:18;102.47;;;92.70;;
2035;SDS011;23642;42.658;23.350;2023-03-23T05:12:52;98.03;;;89.30;;
2035;SDS011;23642;42.658;23.350;2023-03-23T05:15:21;96.90;;;87.90;;
2035;SDS011;23642;42.658;23.350;2023-03-23T05:17:50;98.50;;;88.50;;
2035;SDS011;23642;42.658;23.350;2023-03-23T05:20:17;95.87;;;87.10;;
2035;SDS011;23642;42.658;23.350;2023-03-23T05:22:45;94.63;;;85.97;;
2035;SDS011;23642;42.658;23.350;2023-03-23T05:25:14;93.47;;;85.50;;
2035;SDS011;23642;42.658;23.350;2023-03-23T05:27:44;98.63;;;89.33;;
2035;SDS011;23642;42.658;23.350;2023-03-23T05:30:14;96.33;;;87.97;;
2035;SDS011;23642;42.658;23.350;2023-03-23T05:32:42;94.50;;;85.83;;
2035;SDS011;23642;42.658;23.350;2023-03-23T05:35:11;90.30;;;82.50;;
2035;SDS011;23642;42.658;23.350;2023-03-23T05:37:38;90.03;;;82.80;;
2035;SDS011;23642;42.658;23.350;2023-03-23T05:40:06;90.80;;;83.50;;
2035;SDS011;23642;42.658;23.350;2023-03-23T05:42:33;93.13;;;85.27;;
2035;SDS011;23642;42.658;23.350;2023-03-23T05:45:01;90.47;;;83.37;;
2035;SDS011;23642;42.658;23.350;2023-03-23T05:47:28;91.17;;;83.50;;
2035;SDS011;23642;42.658;23.350;2023-03-23T05:49:55;88.97;;;81.87;;
2035;SDS011;23642;42.658;23.350;2023-03-23T05:52:24;89.73;;;82.70;;
2035;SDS011;23642;42.658;23.350;2023-03-23T05:54:51;93.40;;;85.97;;
2035;SDS011;23642;42.658;23.350;2023-03-23T05:57:18;93.87;;;86.03;;
2035;SDS011;23642;42.658;23.350;2023-03-23T05:59:46;96.20;;;88.90;;
2035;SDS011;23642;42.658;23.350;2023-03-23T06:02:14;95.77;;;88.37;;
2035;SDS011;23642;42.658;23.350;2023-03-23T06:04:40;97.47;;;89.80;;
2035;SDS011;23642;42.658;23.350;2023-03-23T06:07:07;95.57;;;88.17;;
2035;SDS011;23642;42.658;23.350;2023-03-23T06:09:39;94.80;;;87.30;;
2035;SDS011;23642;42.658;23.350;2023-03-23T06:12:06;97.67;;;90.17;;
2035;SDS011;23642;42.658;23.350;2023-03-23T06:14:34;99.00;;;91.27;;
2035;SDS011;23642;42.658;23.350;2023-03-23T06:17:01;98.40;;;91.13;;
2035;SDS011;23642;42.658;23.350;2023-03-23T06:19:28;96.67;;;89.57;;
2035;SDS011;23642;42.658;23.350;2023-03-23T06:21:55;98.83;;;91.23;;
2035;SDS011;23642;42.658;23.350;2023-03-23T06:24:21;97.63;;;90.00;;
2035;SDS011;23642;42.658;23.350;2023-03-23T06:26:50;98.67;;;90.77;;
2035;SDS011;23642;42.658;23.350;2023-03-23T06:29:17;100.37;;;92.07;;
2035;SDS011;23642;42.658;23.350;2023-03-23T06:31:51;97.60;;;89.90;;
2035;SDS011;23642;42.658;23.350;2023-03-23T06:34:20;98.30;;;90.47;;
2035;SDS011;23642;42.658;23.350;2023-03-23T06:36:52;99.23;;;91.13;;
2035;SDS011;23642;42.658;23.350;2023-03-23T06:39:19;98.93;;;90.90;;
2035;SDS011;23642;42.658;23.350;2023-03-23T06:41:49;103.30;;;93.80;;
2035;SDS011;23642;42.658;23.350;2023-03-23T06:44:17;104.63;;;95.37;;
2035;SDS011;23642;42.658;23.350;2023-03-23T06:46:47;107.20;;;96.90;;
2035;SDS011;23642;42.658;23.350;2023-03-23T06:49:16;105.03;;;96.70;;
2035;SDS011;23642;42.658;23.350;2023-03-23T06:51:51;105.63;;;97.93;;
2035;SDS011;23642;42.658;23.350;2023-03-23T06:54:21;107.63;;;99.43;;
2035;SDS011;23642;42.658;23.350;2023-03-23T06:56:50;108.57;;;100.53;;
2035;SDS011;23642;42.658;23.350;2023-03-23T06:59:21;108.93;;;100.93;;
2035;SDS011;23642;42.658;23.350;2023-03-23T07:01:48;109.47;;;100.07;;
2035;SDS011;23642;42.658;23.350;2023-03-23T07:04:15;107.00;;;97.67;;
2035;SDS011;23642;42.658;23.350;2023-03-23T07:06:42;108.87;;;99.67;;
2035;SDS011;23642;42.658;23.350;2023-03-23T07:09:12;106.00;;;98.17;;
2035;SDS011;23642;42.658;23.350;2023-03-23T07:11:39;107.17;;;98.97;;
2035;SDS011;23642;42.658;23.350;2023-03-23T07:14:07;106.27;;;97.97;;
2035;SDS011;23642;42.658;23.350;2023-03-23T07:16:34;106.77;;;98.13;;
2035;SDS011;23642;42.658;23.350;2023-03-23T07:19:08;106.87;;;98.67;;
2035;SDS011;23642;42.658;23.350;2023-03-23T07:21:37;110.37;;;102.33;;
2035;SDS011;23642;42.658;23.350;2023-03-23T07:24:17;113.67;;;104.63;;
2035;SDS011;23642;42.658;23.350;2023-03-23T07:26:59;109.00;;;100.07;;
2035;SDS011;23642;42.658;23.350;2023-03-23T07:29:28;108.47;;;100.47;;
2035;SDS011;23642;42.658;23.350;2023-03-23T07:31:54;113.23;;;104.00;;
2035;SDS011;23642;42.658;23.350;2023-03-23T07:34:22;115.03;;;105.70;;
2035;SDS011;23642;42.658;23.350;2023-03-23T07:36:49;113.63;;;105.10;;
2035;SDS011;23642;42.658;23.350;2023-03-23T07:39:15;114.03;;;105.23;;
2035;SDS011;23642;42.658;23.350;2023-03-23T07:41:42;116.23;;;106.53;;
2035;SDS011;23642;42.658;23.350;2023-03-23T07:44:09;117.77;;;108.97;;
2035;SDS011;23642;42.658;23.350;2023-03-23T07:46:37;116.67;;;107.63;;
2035;SDS011;23642;42.658;23.350;2023-03-23T07:49:06;115.57;;;106.60;;
2035;SDS011;23642;42.658;23.350;2023-03-23T07:51:35;117.20;;;108.30;;
2035;SDS011;23642;42.658;23.350;2023-03-23T07:54:03;121.13;;;111.43;;
2035;SDS011;23642;42.658;23.350;2023-03-23T07:56:32;118.00;;;107.70;;
2035;SDS011;23642;42.658;23.350;2023-03-23T07:58:59;119.90;;;110.20;;
2035;SDS011;23642;42.658;23.350;2023-03-23T08:01:27;115.30;;;106.67;;
2035;SDS011;23642;42.658;23.350;2023-03-23T08:03:56;118.90;;;109.20;;
2035;SDS011;23642;42.658;23.350;2023-03-23T08:06:24;117.77;;;108.03;;
2035;SDS011;23642;42.658;23.350;2023-03-23T08:08:51;120.30;;;110.13;;
2035;SDS011;23642;42.658;23.350;2023-03-23T08:11:19;118.40;;;109.10;;
2035;SDS011;23642;42.658;23.350;2023-03-23T08:13:47;117.50;;;108.53;;
2035;SDS011;23642;42.658;23.350;2023-03-23T08:16:14;122.07;;;113.07;;
2035;SDS011;23642;42.658;23.350;2023-03-23T08:18:41;112.90;;;104.60;;
2035;SDS011;23642;42.658;23.350;2023-03-23T08:21:09;119.63;;;110.40;;
2035;SDS011;23642;42.658;23.350;2023-03-23T08:23:36;117.00;;;108.00;;
2035;SDS011;23642;42.658;23.350;2023-03-23T08:26:03;118.90;;;110.10;;
2035;SDS011;23642;42.658;23.350;2023-03-23T08:28:32;118.93;;;109.43;;
2035;SDS011;23642;42.658;23.350;2023-03-23T08:30:59;117.97;;;109.37;;
2035;SDS011;23642;42.658;23.350;2023-03-23T08:33:28;117.43;;;108.93;;
2035;SDS011;23642;42.658;23.350;2023-03-23T08:35:56;116.17;;;107.23;;
2035;SDS011;23642;42.658;23.350;2023-03-23T08:38:26;119.10;;;109.70;;
2035;SDS011;23642;42.658;23.350;2023-03-23T08:40:57;120.33;;;110.80;;
2035;SDS011;23642;42.658;23.350;2023-03-23T08:43:25;116.67;;;108.33;;
2035;SDS011;23642;42.658;23.350;2023-03-23T08:45:54;117.33;;;108.83;;
2035;SDS011;23642;42.658;23.350;2023-03-23T08:48:24;118.63;;;109.83;;
2035;SDS011;23642;42.658;23.350;2023-03-23T08:51:06;118.93;;;110.10;;
2035;SDS011;23642;42.658;23.350;2023-03-23T08:53:35;115.33;;;107.37;;
2035;SDS011;23642;42.658;23.350;2023-03-23T08:56:02;115.73;;;107.40;;
2035;SDS011;23642;42.658;23.350;2023-03-23T08:58:30;113.43;;;105.77;;
2035;SDS011;23642;42.658;23.350;2023-03-23T09:00:59;114.77;;;107.13;;
2035;SDS011;23642;42.658;23.350;2023-03-23T09:03:32;115.30;;;107.47;;
2035;SDS011;23642;42.658;23.350;2023-03-23T09:06:06;119.20;;;110.47;;
2035;SDS011;23642;42.658;23.350;2023-03-23T09:08:35;115.80;;;107.60;;
2035;SDS011;23642;42.658;23.350;2023-03-23T09:11:03;117.27;;;108.97;;
2035;SDS011;23642;42.658;23.350;2023-03-23T09:13:35;117.13;;;109.07;;
2035;SDS011;23642;42.658;23.350;2023-03-23T09:16:06;114.23;;;106.20;;
2035;SDS011;23642;42.658;23.350;2023-03-23T09:18:34;119.17;;;110.17;;
2035;SDS011;23642;42.658;23.350;2023-03-23T09:21:07;115.07;;;107.17;;
2035;SDS011;23642;42.658;23.350;2023-03-23T09:23:35;116.43;;;108.07;;
2035;SDS011;23642;42.658;23.350;2023-03-23T09:26:03;115.97;;;107.60;;
2035;SDS011;23642;42.658;23.350;2023-03-23T09:28:30;115.33;;;107.40;;
2035;SDS011;23642;42.658;23.350;2023-03-23T09:31:00;114.80;;;106.97;;
2035;SDS011;23642;42.658;23.350;2023-03-23T09:33:27;115.17;;;106.67;;
2035;SDS011;23642;42.658;23.350;2023-03-23T09:35:59;115.37;;;107.27;;
2035;SDS011;23642;42.658;23.350;2023-03-23T09:38:27;120.70;;;111.70;;
2035;SDS011;23642;42.658;23.350;2023-03-23T09:41:01;117.27;;;109.10;;
2035;SDS011;23642;42.658;23.350;2023-03-23T09:43:44;113.90;;;106.30;;
2035;SDS011;23642;42.658;23.350;2023-03-23T09:46:24;115.50;;;107.60;;
2035;SDS011;23642;42.658;23.350;2023-03-23T09:49:17;116.77;;;108.60;;
2035;SDS011;23642;42.658;23.350;2023-03-23T09:51:50;115.37;;;107.53;;
2035;SDS011;23642;42.658;23.350;2023-03-23T09:54:20;117.10;;;108.33;;
2035;SDS011;23642;42.658;23.350;2023-03-23T09:56:50;113.77;;;105.50;;
2035;SDS011;23642;42.658;23.350;2023-03-23T09:59:23;113.13;;;105.53;;
2035;SDS011;23642;42.658;23.350;2023-03-23T10:01:56;110.40;;;103.00;;
2035;SDS011;23642;42.658;23.350;2023-03-23T10:04:28;111.17;;;103.77;;
2035;SDS011;23642;42.658;23.350;2023-03-23T10:07:05;112.57;;;105.23;;
2035;SDS011;23642;42.658;23.350;2023-03-23T10:09:46;112.33;;;104.93;;
2035;SDS011;23642;42.658;23.350;2023-03-23T10:12:21;110.63;;;103.20;;
2035;SDS011;23642;42.658;23.350;2023-03-23T10:15:00;112.90;;;105.10;;
2035;SDS011;23642;42.658;23.350;2023-03-23T10:17:33;113.00;;;105.30;;
2035;SDS011;23642;42.658;23.350;2023-03-23T10:20:17;110.53;;;102.93;;
2035;SDS011;23642;42.658;23.350;2023-03-23T10:22:51;110.80;;;103.57;;
2035;SDS011;23642;42.658;23.350;2023-03-23T10:25:23;113.20;;;104.70;;
2035;SDS011;23642;42.658;23.350;2023-03-23T10:27:57;113.83;;;105.90;;
2035;SDS011;23642;42.658;23.350;2023-03-23T10:30:31;112.50;;;105.10;;
2035;SDS011;23642;42.658;23.350;2023-03-23T10:33:02;113.30;;;105.77;;
2035;SDS011;23642;42.658;23.350;2023-03-23T10:35:35;109.50;;;102.30;;
2035;SDS011;23642;42.658;23.350;2023-03-23T10:38:06;112.20;;;105.00;;
2035;SDS011;23642;42.658;23.350;2023-03-23T10:40:47;111.27;;;103.80;;
2035;SDS011;23642;42.658;23.350;2023-03-23T10:43:22;110.90;;;103.70;;
2035;SDS011;23642;42.658;23.350;2023-03-23T10:46:10;113.13;;;104.50;;
2035;SDS011;23642;42.658;23.350;2023-03-23T10:48:47;110.20;;;103.10;;
2035;SDS011;23642;42.658;23.350;2023-03-23T10:51:19;110.17;;;102.93;;
2035;SDS011;23642;42.658;23.350;2023-03-23T10:53:49;111.03;;;103.83;;
2035;SDS011;23642;42.658;23.350;2023-03-23T10:56:21;112.80;;;105.30;;
2035;SDS011;23642;42.658;23.350;2023-03-23T10:58:53;111.60;;;104.20;;
2035;SDS011;23642;42.658;23.350;2023-03-23T11:01:28;113.07;;;105.47;;
2035;SDS011;23642;42.658;23.350;2023-03-23T11:03:56;110.23;;;102.70;;
2035;SDS011;23642;42.658;23.350;2023-03-23T11:06:26;111.37;;;103.93;;
2035;SDS011;23642;42.658;23.350;2023-03-23T11:09:09;113.17;;;104.80;;
2035;SDS011;23642;42.658;23.350;2023-03-23T11:11:39;108.93;;;101.87;;
2035;SDS011;23642;42.658;23.350;2023-03-23T11:14:17;108.63;;;101.13;;
2035;SDS011;23642;42.658;23.350;2023-03-23T11:16:49;109.07;;;102.17;;
2035;SDS011;23642;42.658;23.350;2023-03-23T11:19:21;108.80;;;101.60;;
2035;SDS011;23642;42.658;23.350;2023-03-23T11:21:50;108.87;;;101.77;;
2035;SDS011;23642;42.658;23.350;2023-03-23T11:24:21;111.40;;;104.03;;
2035;SDS011;23642;42.658;23.350;2023-03-23T11:26:49;110.03;;;102.63;;
2035;SDS011;23642;42.658;23.350;2023-03-23T11:29:19;107.50;;;100.50;;
2035;SDS011;23642;42.658;23.350;2023-03-23T11:31:51;109.03;;;101.63;;
2035;SDS011;23642;42.658;23.350;2023-03-23T11:34:32;110.27;;;102.77;;
2035;SDS011;23642;42.658;23.350;2023-03-23T11:37:02;108.27;;;100.97;;
2035;SDS011;23642;42.658;23.350;2023-03-23T11:39:32;110.10;;;103.07;;
2035;SDS011;23642;42.658;23.350;2023-03-23T11:42:00;105.40;;;98.70;;
2035;SDS011;23642;42.658;23.350;2023-03-23T11:44:42;108.13;;;100.53;;
2035;SDS011;23642;42.658;23.350;2023-03-23T11:47:15;104.43;;;97.37;;
2035;SDS011;23642;42.658;23.350;2023-03-23T11:49:48;106.93;;;99.83;;
2035;SDS011;23642;42.658;23.350;2023-03-23T11:52:23;108.80;;;101.30;;
2035;SDS011;23642;42.658;23.350;2023-03-23T11:54:58;104.20;;;97.10;;
2035;SDS011;23642;42.658;23.350;2023-03-23T11:57:30;109.03;;;101.93;;
2035;SDS011;23642;42.658;23.350;2023-03-23T11:59:59;107.77;;;100.70;;
2035;SDS011;23642;42.658;23.350;2023-03-23T12:03:57;107.23;;;100.10;;
2035;SDS011;23642;42.658;23.350;2023-03-23T12:05:38;108.30;;;100.57;;
2035;SDS011;23642;42.658;23.350;2023-03-23T12:08:17;105.13;;;98.43;;
2035;SDS011;23642;42.658;23.350;2023-03-23T12:10:58;108.40;;;101.47;;
2035;SDS011;23642;42.658;23.350;2023-03-23T12:13:36;108.50;;;101.50;;
2035;SDS011;23642;42.658;23.350;2023-03-23T12:16:23;107.33;;;100.20;;
2035;SDS011;23642;42.658;23.350;2023-03-23T12:18:58;109.33;;;102.33;;
2035;SDS011;23642;42.658;23.350;2023-03-23T12:21:35;108.60;;;100.40;;
2035;SDS011;23642;42.658;23.350;2023-03-23T12:24:14;107.87;;;100.57;;
2035;SDS011;23642;42.658;23.350;2023-03-23T12:26:48;106.60;;;99.80;;
2035;SDS011;23642;42.658;23.350;2023-03-23T12:29:27;109.43;;;102.23;;
2035;SDS011;23642;42.658;23.350;2023-03-23T12:32:22;106.57;;;99.50;;
2035;SDS011;23642;42.658;23.350;2023-03-23T12:34:58;105.43;;;98.60;;
2035;SDS011;23642;42.658;23.350;2023-03-23T12:37:38;105.60;;;98.53;;
2035;SDS011;23642;42.658;23.350;2023-03-23T12:40:21;106.20;;;99.00;;
2035;SDS011;23642;42.658;23.350;2023-03-23T12:43:08;106.20;;;98.80;;
2035;SDS011;23642;42.658;23.350;2023-03-23T12:45:55;105.73;;;98.97;;
2035;SDS011;23642;42.658;23.350;2023-03-23T12:48:34;103.90;;;97.30;;
2035;SDS011;23642;42.658;23.350;2023-03-23T12:51:17;106.20;;;99.43;;
2035;SDS011;23642;42.658;23.350;2023-03-23T12:53:52;107.27;;;100.37;;
2035;SDS011;23642;42.658;23.350;2023-03-23T12:56:26;103.70;;;97.10;;
2035;SDS011;23642;42.658;23.350;2023-03-23T12:59:03;107.33;;;100.20;;
2035;SDS011;23642;42.658;23.350;2023-03-23T13:01:44;108.23;;;101.43;;
2035;SDS011;23642;42.658;23.350;2023-03-23T13:04:14;109.30;;;102.00;;
2035;SDS011;23642;42.658;23.350;2023-03-23T13:06:46;107.23;;;99.93;;
2035;SDS011;23642;42.658;23.350;2023-03-23T13:09:18;107.17;;;100.27;;
2035;SDS011;23642;42.658;23.350;2023-03-23T13:11:48;107.60;;;100.70;;
2035;SDS011;23642;42.658;23.350;2023-03-23T13:14:29;106.70;;;100.00;;
2035;SDS011;23642;42.658;23.350;2023-03-23T13:17:07;106.20;;;99.60;;
2035;SDS011;23642;42.658;23.350;2023-03-23T13:22:41;108.77;;;101.57;;
2035;SDS011;23642;42.658;23.350;2023-03-23T13:25:17;108.20;;;101.27;;
2035;SDS011;23642;42.658;23.350;2023-03-23T13:27:56;105.87;;;99.17;;
2035;SDS011;23642;42.658;23.350;2023-03-23T13:30:27;107.70;;;100.90;;
2035;SDS011;23642;42.658;23.350;2023-03-23T13:33:01;106.77;;;100.17;;
2035;SDS011;23642;42.658;23.350;2023-03-23T13:35:33;108.10;;;101.10;;
2035;SDS011;23642;42.658;23.350;2023-03-23T13:38:10;108.97;;;101.97;;
2035;SDS011;23642;42.658;23.350;2023-03-23T13:40:43;106.83;;;98.93;;
2035;SDS011;23642;42.658;23.350;2023-03-23T13:43:11;108.30;;;101.20;;
2035;SDS011;23642;42.658;23.350;2023-03-23T13:45:43;110.20;;;102.67;;
2035;SDS011;23642;42.658;23.350;2023-03-23T13:48:19;105.10;;;98.03;;
2035;SDS011;23642;42.658;23.350;2023-03-23T13:50:53;105.70;;;99.07;;
2035;SDS011;23642;42.658;23.350;2023-03-23T13:53:22;105.43;;;98.80;;
2035;SDS011;23642;42.658;23.350;2023-03-23T13:56:05;104.60;;;98.10;;
2035;SDS011;23642;42.658;23.350;2023-03-23T13:58:45;108.30;;;101.63;;
2035;SDS011;23642;42.658;23.350;2023-03-23T14:01:16;105.60;;;98.93;;
2035;SDS011;23642;42.658;23.350;2023-03-23T14:03:46;106.43;;;99.53;;
2035;SDS011;23642;42.658;23.350;2023-03-23T14:06:16;104.17;;;97.67;;
2035;SDS011;23642;42.658;23.350;2023-03-23T14:08:47;107.00;;;100.00;;
2035;SDS011;23642;42.658;23.350;2023-03-23T14:11:20;105.70;;;98.83;;
2035;SDS011;23642;42.658;23.350;2023-03-23T14:13:51;106.97;;;100.23;;
2035;SDS011;23642;42.658;23.350;2023-03-23T14:16:31;107.63;;;100.73;;
2035;SDS011;23642;42.658;23.350;2023-03-23T14:19:02;102.47;;;95.97;;
2035;SDS011;23642;42.658;23.350;2023-03-23T14:21:42;103.17;;;95.97;;
2035;SDS011;23642;42.658;23.350;2023-03-23T14:24:17;103.40;;;96.83;;
2035;SDS011;23642;42.658;23.350;2023-03-23T14:26:49;104.83;;;98.03;;
2035;SDS011;23642;42.658;23.350;2023-03-23T14:29:18;105.90;;;99.20;;
2035;SDS011;23642;42.658;23.350;2023-03-23T14:31:48;105.07;;;98.40;;
2035;SDS011;23642;42.658;23.350;2023-03-23T14:34:19;104.73;;;97.60;;
2035;SDS011;23642;42.658;23.350;2023-03-23T14:36:48;107.10;;;100.03;;
2035;SDS011;23642;42.658;23.350;2023-03-23T14:39:17;104.30;;;97.70;;